EBCI - Charleroi/Gosselies, Belgium
Distance de la station: NE 18km
Mise à jour: 24/07/2024 19:50
quelques nuages
quelques nuages
 Wind from NNO
Vent: NNO 7 km/h
Température: 21°C
Point de rosée: 11°C
Humidité: 53%
Baromètre: 1020 hPa
Ciel: quelques nuages
Visibilité: 10 km
Détails du ciel: quelques nuages 1433 m
2024/07/24 17:50 EBCI 241750Z 33004KT 280V360 9999 FEW047 21/11 Q1020 NOSIG
EBFS - Florennes, Belgium
Distance de la station: ESE 31km
Mise à jour: 24/07/2024 19:25
quelques nuages
quelques nuages
 Wind from NNO
Vent: NNO 9 km/h
Température: 21°C
Point de rosée: 11°C
Humidité: 53%
Baromètre: 1020 hPa
Ciel: quelques nuages
Visibilité: 10 km
Détails du ciel: quelques nuages 6706 m
2024/07/24 17:25 EBFS 241725Z AUTO 34005KT 9999 FEW220/// 21/11 Q1020 BLU
EBCV - Chievres, Belgium
Distance de la station: NO 40km
Mise à jour: 24/07/2024 19:25

 Wind from NNE
Vent: NNE 7 km/h
Température: 23°C
Point de rosée: 11°C
Humidité: 47%
Baromètre: 1019 hPa
Visibilité: 10 km
2024/07/24 17:25 EBCV 241725Z AUTO 02004KT 9999 /// 23/11 Q1019 BLU
 
EBBE - Beauvechain, Belgium
Distance de la station: NE 57km
Mise à jour: 24/07/2024 19:25
quelques nuages
quelques nuages
 Wind from NO
Vent: NO 9 km/h
Température: 21°C
Point de rosée: 12°C
Humidité: 57%
Baromètre: 1019 hPa
Ciel: quelques nuages
Visibilité: 10 km
Détails du ciel: quelques nuages 1402 m
2024/07/24 17:25 EBBE 241725Z AUTO 32005KT 9999 FEW046/// 21/12 Q1019 BLU
EBBR - Brussels National, Belgium
Distance de la station: NNE 63km
Mise à jour: 24/07/2024 19:50
clair
clair
 Wind from N
Vent: N 9 km/h
Température: 21°C
Point de rosée: 12°C
Humidité: 57%
Baromètre: 1020 hPa
Résumé: clair
Visibilité: greater than 10 km
2024/07/24 17:50 EBBR 241750Z 36005KT 330V030 CAVOK 21/12 Q1020 NOSIG
LFQI - Cambrai/Epinoy, France
Distance de la station: O 82km
Mise à jour: 29/06/2012 12:30
NOT Current

 Wind from SO
Vent: SO 17 km/h
Température: 18°C
Point de rosée: 14°C
Humidité: 78%
Baromètre: 1009 hPa
2012/06/29 10:30 LFQI 291030Z AUTO 22009KT //// // ///////// 18/14 Q1009
 
LFQQ - Lille/Lesquin, France
Distance de la station: ONO 86km
Mise à jour: 24/07/2024 19:30
clair
clair
 Wind from varies
Vent: varies 6 km/h
Température: 24°C
Point de rosée: 11°C
Humidité: 44%
Baromètre: 1019 hPa
Résumé: clair
Visibilité: greater than 10 km
2024/07/24 17:30 LFQQ 241730Z AUTO VRB03KT CAVOK 24/11 Q1019 NOSIG
EBLG - Bierset/Liege, Belgium
Distance de la station: ENE 89km
Mise à jour: 24/07/2024 19:50
quelques nuages
quelques nuages
 Wind from NO
Vent: NO 7 km/h
Température: 21°C
Point de rosée: 11°C
Humidité: 53%
Baromètre: 1020 hPa
Ciel: quelques nuages
Visibilité: 10 km
Détails du ciel: quelques nuages 1433 m
2024/07/24 17:50 EBLG 241750Z 32004KT 280V350 9999 FEW047 21/11 Q1020 NOSIG
EBDT - Schaffen, Belgium
Distance de la station: NE 93km
Mise à jour: 24/07/2024 19:25
quelques nuages
quelques nuages
 Wind from NNO
Vent: NNO 9 km/h
Température: 22°C
Point de rosée: 12°C
Humidité: 53%
Baromètre: 1019 hPa
Ciel: quelques nuages
Visibilité: 10 km
Détails du ciel: quelques nuages 1402 m
2024/07/24 17:25 EBDT 241725Z AUTO 33005KT 9999 FEW046/// 22/12 Q1019 BLU
 
EBAW - Antwerp/Deurne, Belgium
Distance de la station: N 96km
Mise à jour: 24/07/2024 19:50
quelques nuages
quelques nuages
 Wind from NO
Vent: NO 9 km/h
Température: 21°C
Point de rosée: 11°C
Humidité: 53%
Baromètre: 1019 hPa
Ciel: quelques nuages
Visibilité: 10 km
Détails du ciel: quelques nuages 1463 m
2024/07/24 17:50 EBAW 241750Z 32005KT 9999 FEW048 21/11 Q1019 NOSIG
LFAQ - Bray, France
Distance de la station: OSO 119km
Mise à jour: 24/07/2024 19:30
clair
clair
 Wind from varies
Vent: varies 6 km/h
Température: 23°C
Point de rosée: 11°C
Humidité: 47%
Baromètre: 1019 hPa
Résumé: clair
Visibilité: greater than 10 km
2024/07/24 17:30 LFAQ 241730Z AUTO VRB03KT CAVOK 23/11 Q1019
LFSR - Reims/Champagne, France
Distance de la station: S 120km
Mise à jour: 16/04/2012 09:00
NOT Current
partiellement nuageux
partiellement nuageux
 Wind from N
Vent: N 17 km/h
Température: 4°C
Température ressentie: 0°C
Point de rosée: 0°C
Humidité: 75%
Baromètre: 1022 hPa
Ciel: partiellement nuageux
Visibilité: 10 km
2012/04/16 07:00 LFSR 160700Z AUTO 01009KT 340V070 9999 NSC 04/00 Q1022
 
EHWO - Woensdrecht, Netherlands
Distance de la station: N 122km
Mise à jour: 24/07/2024 19:25
couvert
couvert
 Wind from O
Vent: O 9 km/h
Température: 21°C
Point de rosée: 13°C
Humidité: 60%
Baromètre: 1019 hPa
Ciel: couvert
Visibilité: 10 km
Détails du ciel: couvert 10058 m
2024/07/24 17:25 EHWO 241725Z AUTO 28005KT 230V310 9999 OVC330 21/13 Q1019 BLU
EHBK - Zuid-Limburg, Netherlands
Distance de la station: ENE 123km
Mise à jour: 24/07/2024 19:25
partiellement nuageux
partiellement nuageux
 Wind from NNE
Vent: NNE 9 km/h
Température: 21°C
Point de rosée: 13°C
Humidité: 60%
Baromètre: 1019 hPa
Ciel: partiellement nuageux
Visibilité: 10 km
2024/07/24 17:25 EHBK 241725Z AUTO 02005KT 290V060 9999 NSC 21/13 Q1019 NOSIG
EBBL - Kleine-Brogel, Belgium
Distance de la station: NE 124km
Mise à jour: 24/07/2024 19:25
partiellement nuageux
partiellement nuageux
 Wind from N
Vent: N 7 km/h
Température: 21°C
Point de rosée: 13°C
Humidité: 60%
Baromètre: 1019 hPa
Ciel: partiellement nuageux
Visibilité: 10 km
Détails du ciel: partiellement nuageux 1798 m
2024/07/24 17:25 EBBL 241725Z AUTO 01004KT 9999 SCT059/// 21/13 Q1019 BLU
 
EBLB - Elsenborn, Belgium
Distance de la station: E 135km
Mise à jour: 24/07/2024 19:25
partiellement nuageux
partiellement nuageux
 Wind from N
Vent: N 11 km/h
Température: 18°C
Point de rosée: 11°C
Humidité: 64%
Baromètre: 1020 hPa
Ciel: partiellement nuageux
Visibilité: 10 km
Détails du ciel: partiellement nuageux 1158 m
2024/07/24 17:25 EBLB 241725Z AUTO 35006KT 9999 SCT038/// 18/11 Q1020 BLU
EBOS - Oostende Airport, Belgium
Distance de la station: NO 136km
Mise à jour: 24/07/2024 19:50
quelques nuages
quelques nuages
 Wind from E
Vent: E 6 km/h
Température: 21°C
Point de rosée: 14°C
Humidité: 64%
Baromètre: 1020 hPa
Ciel: quelques nuages
Visibilité: 10 km
Détails du ciel: quelques nuages 914 m
2024/07/24 17:50 EBOS 241750Z 08003KT 9999 FEW030 21/14 Q1020 NOSIG
EBFN - Koksijde, Belgium
Distance de la station: NO 140km
Mise à jour: 24/07/2024 19:25
clair
clair
 Wind from NNO
Vent: NNO 9 km/h
Température: 21°C
Point de rosée: 14°C
Humidité: 64%
Baromètre: 1019 hPa
Ciel: clair
Visibilité: 10 km
2024/07/24 17:25 EBFN 241725Z AUTO 34005KT 9999 NCD 21/14 Q1019 BLU
 
ETNG - Geilenkirchen, Germany
Distance de la station: ENE 142km
Mise à jour: 24/07/2024 19:50
clair
clair
 Wind from NNO
Vent: NNO 7 km/h
Température: 21°C
Point de rosée: 13°C
Humidité: 60%
Baromètre: 1019 hPa
Résumé: clair
Visibilité: greater than 10 km
2024/07/24 17:50 ETNG 241750Z 33004KT CAVOK 21/13 Q1019
EHGR - Gilze-Rijen, Netherlands
Distance de la station: NNE 143km
Mise à jour: 24/07/2024 19:25
plutôt nuageux
plutôt nuageux
 Wind from NO
Vent: NO 11 km/h
Température: 21°C
Point de rosée: 12°C
Humidité: 57%
Baromètre: 1019 hPa
Ciel: plutôt nuageux
Visibilité: 10 km
Détails du ciel: plutôt nuageux 1280 m
2024/07/24 17:25 EHGR 241725Z AUTO 31006KT 270V050 9999 BKN042 21/12 Q1019 BLU NOSIG
EHEH - Eindhoven, Netherlands
Distance de la station: NNE 147km
Mise à jour: 24/07/2024 19:25
clair
clair
 Wind from N
Vent: N 7 km/h
Température: 22°C
Point de rosée: 11°C
Humidité: 50%
Baromètre: 1019 hPa
Ciel: clair
Visibilité: 10 km
2024/07/24 17:25 EHEH 241725Z AUTO 35004KT 280V020 9999 NCD 22/11 Q1019 BLU NOSIG
 
ELLX - Luxembourg, Luxembourg
Distance de la station: ESE 162km
Mise à jour: 24/07/2024 19:50
quelques nuages
quelques nuages
 Wind from NO
Vent: NO 9 km/h
Température: 20°C
Point de rosée: 10°C
Humidité: 53%
Baromètre: 1020 hPa
Ciel: quelques nuages
Visibilité: 10 km
Détails du ciel: quelques nuages 1463 m
2024/07/24 17:50 ELLX 241750Z 31005KT 270V330 9999 FEW048 20/10 Q1020 NOSIG
EHVK - Volkel, Netherlands
Distance de la station: NE 174km
Mise à jour: 24/07/2024 19:25
clair
clair
 Wind from ONO
Vent: ONO 7 km/h
Température: 22°C
Point de rosée: 10°C
Humidité: 47%
Baromètre: 1019 hPa
Ciel: clair
Visibilité: 10 km
2024/07/24 17:25 EHVK 241725Z AUTO 30004KT 280V020 9999 NCD 22/10 Q1019 BLU
LFOK - Chalons/Vatry, France
Distance de la station: S 174km
Mise à jour: 24/07/2024 19:30
clair
clair
 Wind from N
Vent: N 11 km/h
Température: 22°C
Point de rosée: 12°C
Humidité: 53%
Baromètre: 1020 hPa
Résumé: clair
Visibilité: greater than 10 km
2024/07/24 17:30 LFOK 241730Z AUTO 01006KT CAVOK 22/12 Q1020 NOSIG
Script from Saratoga-Weather.org